CheckWX is a tool to help pilots better visualize weather data.  It is not intended as a substitute for an official pre-flight weather briefing.

21:22:51 UTC

KCXO TAF
Conroe-North Houston Regional Airport
Houston, Texas, USA
KCXO 221720Z 2218/2318 07006KT P6SM SKC FM230000 VRB02KT P6SM SKC FM231600 13007KT P6SM SKC

Oct-22@
18:00 UTC

Oct-22 @ 18:00 UTC

Oct-23@
00:00 UTC

Oct-23 @ 00:00 UTC

KCXO 221720Z 2218/2318 07006KT P6SM SKC
Wind
  • 070° at 6 KTS
Cloud Levels
  • Clear skies

Oct-23@
00:00 UTC

Oct-23 @ 00:00 UTC

Oct-23@
16:00 UTC

Oct-23 @ 16:00 UTC

FM230000 VRB02KT P6SM SKC

From

From Standard forecast or significant change

Wind
  • Variable at 2 KTS
Cloud Levels
  • Clear skies

Oct-23@
16:00 UTC

Oct-23 @ 16:00 UTC

Oct-23@
18:00 UTC

Oct-23 @ 18:00 UTC

FM231600 13007KT P6SM SKC

From

From Standard forecast or significant change

Wind
  • 130° at 7 KTS
Cloud Levels
  • Clear skies